sensor_id;sensor_type;location;lat;lon;timestamp;P1;durP1;ratioP1;P2;durP2;ratioP2
5026;SDS011;2532;52.480;13.354;2022-08-21T00:02:27;13.73;;;8.97;;
5026;SDS011;2532;52.480;13.354;2022-08-21T00:04:55;12.13;;;8.20;;
5026;SDS011;2532;52.480;13.354;2022-08-21T00:07:22;13.43;;;9.53;;
5026;SDS011;2532;52.480;13.354;2022-08-21T00:09:49;12.77;;;8.27;;
5026;SDS011;2532;52.480;13.354;2022-08-21T00:12:16;15.27;;;8.00;;
5026;SDS011;2532;52.480;13.354;2022-08-21T00:14:43;12.33;;;8.13;;
5026;SDS011;2532;52.480;13.354;2022-08-21T00:17:10;11.10;;;7.67;;
5026;SDS011;2532;52.480;13.354;2022-08-21T00:19:37;11.23;;;7.60;;
5026;SDS011;2532;52.480;13.354;2022-08-21T00:22:05;9.33;;;7.83;;
5026;SDS011;2532;52.480;13.354;2022-08-21T00:24:32;9.30;;;7.90;;
5026;SDS011;2532;52.480;13.354;2022-08-21T00:26:59;9.50;;;7.60;;
5026;SDS011;2532;52.480;13.354;2022-08-21T00:29:26;11.60;;;8.00;;
5026;SDS011;2532;52.480;13.354;2022-08-21T00:31:52;10.27;;;6.80;;
5026;SDS011;2532;52.480;13.354;2022-08-21T00:34:19;11.53;;;7.40;;
5026;SDS011;2532;52.480;13.354;2022-08-21T00:36:47;9.53;;;6.97;;
5026;SDS011;2532;52.480;13.354;2022-08-21T00:39:16;10.10;;;6.70;;
5026;SDS011;2532;52.480;13.354;2022-08-21T00:41:43;10.53;;;7.03;;
5026;SDS011;2532;52.480;13.354;2022-08-21T00:44:11;11.90;;;7.53;;
5026;SDS011;2532;52.480;13.354;2022-08-21T00:46:40;9.83;;;7.23;;
5026;SDS011;2532;52.480;13.354;2022-08-21T00:49:07;12.60;;;8.00;;
5026;SDS011;2532;52.480;13.354;2022-08-21T00:51:38;10.53;;;7.80;;
5026;SDS011;2532;52.480;13.354;2022-08-21T00:54:08;13.13;;;8.00;;
5026;SDS011;2532;52.480;13.354;2022-08-21T00:56:38;11.27;;;8.27;;
5026;SDS011;2532;52.480;13.354;2022-08-21T00:59:05;9.27;;;7.80;;
5026;SDS011;2532;52.480;13.354;2022-08-21T01:01:32;10.40;;;8.63;;
5026;SDS011;2532;52.480;13.354;2022-08-21T01:04:00;13.27;;;8.87;;
5026;SDS011;2532;52.480;13.354;2022-08-21T01:06:27;13.80;;;8.77;;
5026;SDS011;2532;52.480;13.354;2022-08-21T01:08:54;10.40;;;8.80;;
5026;SDS011;2532;52.480;13.354;2022-08-21T01:11:21;10.37;;;8.23;;
5026;SDS011;2532;52.480;13.354;2022-08-21T01:13:49;14.80;;;8.67;;
5026;SDS011;2532;52.480;13.354;2022-08-21T01:16:17;11.90;;;8.73;;
5026;SDS011;2532;52.480;13.354;2022-08-21T01:18:46;12.20;;;8.93;;
5026;SDS011;2532;52.480;13.354;2022-08-21T01:21:16;12.47;;;9.83;;
5026;SDS011;2532;52.480;13.354;2022-08-21T01:23:45;11.37;;;9.00;;
5026;SDS011;2532;52.480;13.354;2022-08-21T01:26:14;12.60;;;9.37;;
5026;SDS011;2532;52.480;13.354;2022-08-21T01:28:44;12.13;;;8.90;;
5026;SDS011;2532;52.480;13.354;2022-08-21T01:31:15;12.00;;;8.43;;
5026;SDS011;2532;52.480;13.354;2022-08-21T01:33:46;14.03;;;8.47;;
5026;SDS011;2532;52.480;13.354;2022-08-21T01:36:14;12.20;;;8.73;;
5026;SDS011;2532;52.480;13.354;2022-08-21T01:38:41;14.67;;;9.43;;
5026;SDS011;2532;52.480;13.354;2022-08-21T01:41:08;11.17;;;8.10;;
5026;SDS011;2532;52.480;13.354;2022-08-21T01:43:35;11.13;;;7.93;;
5026;SDS011;2532;52.480;13.354;2022-08-21T01:46:03;12.93;;;8.10;;
5026;SDS011;2532;52.480;13.354;2022-08-21T01:48:30;13.53;;;8.60;;
5026;SDS011;2532;52.480;13.354;2022-08-21T01:50:56;8.83;;;7.07;;
5026;SDS011;2532;52.480;13.354;2022-08-21T01:53:25;11.50;;;7.80;;
5026;SDS011;2532;52.480;13.354;2022-08-21T01:55:52;11.50;;;7.10;;
5026;SDS011;2532;52.480;13.354;2022-08-21T01:58:19;8.77;;;6.73;;
5026;SDS011;2532;52.480;13.354;2022-08-21T02:00:45;9.67;;;6.20;;
5026;SDS011;2532;52.480;13.354;2022-08-21T02:03:12;8.40;;;6.80;;
5026;SDS011;2532;52.480;13.354;2022-08-21T02:05:39;9.33;;;7.03;;
5026;SDS011;2532;52.480;13.354;2022-08-21T02:08:06;14.97;;;6.70;;
5026;SDS011;2532;52.480;13.354;2022-08-21T02:10:35;7.50;;;5.70;;
5026;SDS011;2532;52.480;13.354;2022-08-21T02:13:02;6.77;;;5.73;;
5026;SDS011;2532;52.480;13.354;2022-08-21T02:15:29;10.13;;;6.13;;
5026;SDS011;2532;52.480;13.354;2022-08-21T02:17:58;6.50;;;5.70;;
5026;SDS011;2532;52.480;13.354;2022-08-21T02:20:27;7.73;;;5.60;;
5026;SDS011;2532;52.480;13.354;2022-08-21T02:22:56;9.00;;;5.60;;
5026;SDS011;2532;52.480;13.354;2022-08-21T02:25:24;9.53;;;5.97;;
5026;SDS011;2532;52.480;13.354;2022-08-21T02:27:53;7.67;;;5.50;;
5026;SDS011;2532;52.480;13.354;2022-08-21T02:30:22;7.97;;;5.57;;
5026;SDS011;2532;52.480;13.354;2022-08-21T02:32:50;7.83;;;5.50;;
5026;SDS011;2532;52.480;13.354;2022-08-21T02:35:17;8.20;;;5.10;;
5026;SDS011;2532;52.480;13.354;2022-08-21T02:37:46;9.43;;;5.60;;
5026;SDS011;2532;52.480;13.354;2022-08-21T02:40:15;10.17;;;6.20;;
5026;SDS011;2532;52.480;13.354;2022-08-21T02:42:43;12.43;;;7.17;;
5026;SDS011;2532;52.480;13.354;2022-08-21T02:45:12;12.10;;;8.43;;
5026;SDS011;2532;52.480;13.354;2022-08-21T02:47:40;12.83;;;6.00;;
5026;SDS011;2532;52.480;13.354;2022-08-21T02:50:13;6.97;;;5.90;;
5026;SDS011;2532;52.480;13.354;2022-08-21T02:52:43;8.47;;;5.60;;
5026;SDS011;2532;52.480;13.354;2022-08-21T02:55:10;8.80;;;5.30;;
5026;SDS011;2532;52.480;13.354;2022-08-21T02:57:37;8.37;;;5.40;;
5026;SDS011;2532;52.480;13.354;2022-08-21T03:00:05;11.83;;;5.73;;
5026;SDS011;2532;52.480;13.354;2022-08-21T03:02:35;9.77;;;5.70;;
5026;SDS011;2532;52.480;13.354;2022-08-21T03:05:02;8.07;;;6.00;;
5026;SDS011;2532;52.480;13.354;2022-08-21T03:07:29;10.73;;;6.00;;
5026;SDS011;2532;52.480;13.354;2022-08-21T03:09:56;9.00;;;5.27;;
5026;SDS011;2532;52.480;13.354;2022-08-21T03:12:22;9.97;;;5.97;;
5026;SDS011;2532;52.480;13.354;2022-08-21T03:14:50;6.80;;;5.23;;
5026;SDS011;2532;52.480;13.354;2022-08-21T03:17:17;7.23;;;4.90;;
5026;SDS011;2532;52.480;13.354;2022-08-21T03:19:45;8.23;;;4.23;;
5026;SDS011;2532;52.480;13.354;2022-08-21T03:22:12;9.50;;;5.67;;
5026;SDS011;2532;52.480;13.354;2022-08-21T03:24:38;7.57;;;4.93;;
5026;SDS011;2532;52.480;13.354;2022-08-21T03:27:05;14.13;;;4.80;;
5026;SDS011;2532;52.480;13.354;2022-08-21T03:29:32;12.07;;;4.97;;
5026;SDS011;2532;52.480;13.354;2022-08-21T03:31:59;8.20;;;5.50;;
5026;SDS011;2532;52.480;13.354;2022-08-21T03:34:26;9.60;;;5.90;;
5026;SDS011;2532;52.480;13.354;2022-08-21T03:36:54;11.30;;;4.60;;
5026;SDS011;2532;52.480;13.354;2022-08-21T03:39:21;8.67;;;5.43;;
5026;SDS011;2532;52.480;13.354;2022-08-21T03:41:48;6.87;;;5.10;;
5026;SDS011;2532;52.480;13.354;2022-08-21T03:44:15;9.60;;;4.97;;
5026;SDS011;2532;52.480;13.354;2022-08-21T03:46:42;7.67;;;4.90;;
5026;SDS011;2532;52.480;13.354;2022-08-21T03:49:08;7.90;;;4.60;;
5026;SDS011;2532;52.480;13.354;2022-08-21T03:51:35;13.27;;;5.50;;
5026;SDS011;2532;52.480;13.354;2022-08-21T03:54:04;7.27;;;4.97;;
5026;SDS011;2532;52.480;13.354;2022-08-21T03:56:31;8.87;;;4.57;;
5026;SDS011;2532;52.480;13.354;2022-08-21T03:58:58;9.40;;;4.67;;
5026;SDS011;2532;52.480;13.354;2022-08-21T04:01:25;8.90;;;4.47;;
5026;SDS011;2532;52.480;13.354;2022-08-21T04:03:51;12.07;;;5.10;;
5026;SDS011;2532;52.480;13.354;2022-08-21T04:06:18;8.33;;;4.67;;
5026;SDS011;2532;52.480;13.354;2022-08-21T04:08:45;10.33;;;4.60;;
5026;SDS011;2532;52.480;13.354;2022-08-21T04:11:13;12.67;;;4.83;;
5026;SDS011;2532;52.480;13.354;2022-08-21T04:13:41;12.50;;;5.50;;
5026;SDS011;2532;52.480;13.354;2022-08-21T04:16:08;9.40;;;5.70;;
5026;SDS011;2532;52.480;13.354;2022-08-21T04:18:35;8.87;;;5.20;;
5026;SDS011;2532;52.480;13.354;2022-08-21T04:21:02;9.10;;;4.30;;
5026;SDS011;2532;52.480;13.354;2022-08-21T04:23:31;6.40;;;3.83;;
5026;SDS011;2532;52.480;13.354;2022-08-21T04:25:58;7.90;;;4.53;;
5026;SDS011;2532;52.480;13.354;2022-08-21T04:28:26;12.40;;;5.33;;
5026;SDS011;2532;52.480;13.354;2022-08-21T04:30:54;9.57;;;4.80;;
5026;SDS011;2532;52.480;13.354;2022-08-21T04:33:21;15.90;;;4.70;;
5026;SDS011;2532;52.480;13.354;2022-08-21T04:35:49;11.80;;;4.60;;
5026;SDS011;2532;52.480;13.354;2022-08-21T04:38:16;8.80;;;4.13;;
5026;SDS011;2532;52.480;13.354;2022-08-21T04:40:43;7.17;;;4.20;;
5026;SDS011;2532;52.480;13.354;2022-08-21T04:43:11;9.70;;;6.00;;
5026;SDS011;2532;52.480;13.354;2022-08-21T04:45:40;12.70;;;5.60;;
5026;SDS011;2532;52.480;13.354;2022-08-21T04:48:09;13.43;;;4.50;;
5026;SDS011;2532;52.480;13.354;2022-08-21T04:50:39;6.40;;;4.40;;
5026;SDS011;2532;52.480;13.354;2022-08-21T04:53:14;10.93;;;4.37;;
5026;SDS011;2532;52.480;13.354;2022-08-21T04:55:44;10.33;;;4.10;;
5026;SDS011;2532;52.480;13.354;2022-08-21T04:58:13;8.70;;;5.03;;
5026;SDS011;2532;52.480;13.354;2022-08-21T05:00:45;4.23;;;3.83;;
5026;SDS011;2532;52.480;13.354;2022-08-21T05:03:13;8.03;;;4.27;;
5026;SDS011;2532;52.480;13.354;2022-08-21T05:05:42;8.97;;;5.13;;
5026;SDS011;2532;52.480;13.354;2022-08-21T05:08:09;19.00;;;7.03;;
5026;SDS011;2532;52.480;13.354;2022-08-21T05:10:41;13.00;;;6.80;;
5026;SDS011;2532;52.480;13.354;2022-08-21T05:13:09;6.20;;;4.30;;
5026;SDS011;2532;52.480;13.354;2022-08-21T05:15:37;10.00;;;5.23;;
5026;SDS011;2532;52.480;13.354;2022-08-21T05:18:05;7.93;;;3.80;;
5026;SDS011;2532;52.480;13.354;2022-08-21T05:20:33;6.60;;;4.40;;
5026;SDS011;2532;52.480;13.354;2022-08-21T05:23:00;7.87;;;4.13;;
5026;SDS011;2532;52.480;13.354;2022-08-21T05:25:33;5.17;;;4.07;;
5026;SDS011;2532;52.480;13.354;2022-08-21T05:27:59;12.27;;;4.97;;
5026;SDS011;2532;52.480;13.354;2022-08-21T05:30:26;11.40;;;5.00;;
5026;SDS011;2532;52.480;13.354;2022-08-21T05:32:55;9.13;;;4.83;;
5026;SDS011;2532;52.480;13.354;2022-08-21T05:35:24;9.33;;;4.73;;
5026;SDS011;2532;52.480;13.354;2022-08-21T05:37:52;9.10;;;5.83;;
5026;SDS011;2532;52.480;13.354;2022-08-21T05:40:19;13.10;;;5.80;;
5026;SDS011;2532;52.480;13.354;2022-08-21T05:42:45;10.57;;;5.63;;
5026;SDS011;2532;52.480;13.354;2022-08-21T05:45:12;11.37;;;4.27;;
5026;SDS011;2532;52.480;13.354;2022-08-21T05:47:39;14.07;;;5.10;;
5026;SDS011;2532;52.480;13.354;2022-08-21T05:50:06;9.83;;;4.70;;
5026;SDS011;2532;52.480;13.354;2022-08-21T05:52:35;10.30;;;4.77;;
5026;SDS011;2532;52.480;13.354;2022-08-21T05:55:02;10.13;;;4.07;;
5026;SDS011;2532;52.480;13.354;2022-08-21T05:57:30;6.10;;;3.80;;
5026;SDS011;2532;52.480;13.354;2022-08-21T05:59:57;6.63;;;3.83;;
5026;SDS011;2532;52.480;13.354;2022-08-21T06:02:23;5.10;;;3.33;;
5026;SDS011;2532;52.480;13.354;2022-08-21T06:04:50;9.17;;;4.10;;
5026;SDS011;2532;52.480;13.354;2022-08-21T06:07:17;12.00;;;4.40;;
5026;SDS011;2532;52.480;13.354;2022-08-21T06:09:45;7.50;;;3.53;;
5026;SDS011;2532;52.480;13.354;2022-08-21T06:12:12;10.00;;;4.10;;
5026;SDS011;2532;52.480;13.354;2022-08-21T06:14:40;9.40;;;3.60;;
5026;SDS011;2532;52.480;13.354;2022-08-21T06:17:08;7.60;;;4.03;;
5026;SDS011;2532;52.480;13.354;2022-08-21T06:19:36;14.83;;;3.70;;
5026;SDS011;2532;52.480;13.354;2022-08-21T06:22:04;9.60;;;4.13;;
5026;SDS011;2532;52.480;13.354;2022-08-21T06:24:32;7.00;;;3.70;;
5026;SDS011;2532;52.480;13.354;2022-08-21T06:27:05;4.60;;;3.50;;
5026;SDS011;2532;52.480;13.354;2022-08-21T06:29:32;8.57;;;4.40;;
5026;SDS011;2532;52.480;13.354;2022-08-21T06:31:59;7.10;;;3.53;;
5026;SDS011;2532;52.480;13.354;2022-08-21T06:34:26;8.20;;;3.63;;
5026;SDS011;2532;52.480;13.354;2022-08-21T06:36:54;10.27;;;4.00;;
5026;SDS011;2532;52.480;13.354;2022-08-21T06:39:21;5.60;;;3.70;;
5026;SDS011;2532;52.480;13.354;2022-08-21T06:41:47;9.37;;;3.23;;
5026;SDS011;2532;52.480;13.354;2022-08-21T06:44:16;6.73;;;3.30;;
5026;SDS011;2532;52.480;13.354;2022-08-21T06:46:44;7.47;;;3.70;;
5026;SDS011;2532;52.480;13.354;2022-08-21T06:49:11;10.87;;;4.53;;
5026;SDS011;2532;52.480;13.354;2022-08-21T06:51:38;7.83;;;3.80;;
5026;SDS011;2532;52.480;13.354;2022-08-21T06:54:05;8.37;;;3.63;;
5026;SDS011;2532;52.480;13.354;2022-08-21T06:56:32;9.17;;;4.40;;
5026;SDS011;2532;52.480;13.354;2022-08-21T06:59:00;6.33;;;3.13;;
5026;SDS011;2532;52.480;13.354;2022-08-21T07:01:28;6.97;;;3.50;;
5026;SDS011;2532;52.480;13.354;2022-08-21T07:03:55;7.33;;;3.70;;
5026;SDS011;2532;52.480;13.354;2022-08-21T07:06:22;14.20;;;5.03;;
5026;SDS011;2532;52.480;13.354;2022-08-21T07:08:49;7.00;;;3.90;;
5026;SDS011;2532;52.480;13.354;2022-08-21T07:11:19;9.20;;;3.73;;
5026;SDS011;2532;52.480;13.354;2022-08-21T07:13:47;6.90;;;3.73;;
5026;SDS011;2532;52.480;13.354;2022-08-21T07:16:16;9.37;;;4.03;;
5026;SDS011;2532;52.480;13.354;2022-08-21T07:18:44;5.77;;;4.00;;
5026;SDS011;2532;52.480;13.354;2022-08-21T07:21:11;5.70;;;3.70;;
5026;SDS011;2532;52.480;13.354;2022-08-21T07:23:39;7.73;;;3.07;;
5026;SDS011;2532;52.480;13.354;2022-08-21T07:26:08;9.13;;;4.17;;
5026;SDS011;2532;52.480;13.354;2022-08-21T07:28:35;8.47;;;3.57;;
5026;SDS011;2532;52.480;13.354;2022-08-21T07:31:02;6.10;;;3.10;;
5026;SDS011;2532;52.480;13.354;2022-08-21T07:33:30;6.73;;;3.43;;
5026;SDS011;2532;52.480;13.354;2022-08-21T07:36:00;7.80;;;4.03;;
5026;SDS011;2532;52.480;13.354;2022-08-21T07:38:28;6.27;;;3.90;;
5026;SDS011;2532;52.480;13.354;2022-08-21T07:40:55;11.33;;;3.67;;
5026;SDS011;2532;52.480;13.354;2022-08-21T07:43:23;20.63;;;5.13;;
5026;SDS011;2532;52.480;13.354;2022-08-21T07:45:50;12.17;;;3.83;;
5026;SDS011;2532;52.480;13.354;2022-08-21T07:48:19;7.67;;;3.47;;
5026;SDS011;2532;52.480;13.354;2022-08-21T07:50:46;6.03;;;3.60;;
5026;SDS011;2532;52.480;13.354;2022-08-21T07:53:14;15.03;;;3.50;;
5026;SDS011;2532;52.480;13.354;2022-08-21T07:55:41;7.30;;;3.17;;
5026;SDS011;2532;52.480;13.354;2022-08-21T07:58:08;11.23;;;3.67;;
5026;SDS011;2532;52.480;13.354;2022-08-21T08:00:35;5.87;;;3.37;;
5026;SDS011;2532;52.480;13.354;2022-08-21T08:03:02;6.30;;;2.90;;
5026;SDS011;2532;52.480;13.354;2022-08-21T08:05:29;8.90;;;3.10;;
5026;SDS011;2532;52.480;13.354;2022-08-21T08:07:57;6.27;;;3.10;;
5026;SDS011;2532;52.480;13.354;2022-08-21T08:10:25;7.00;;;3.30;;
5026;SDS011;2532;52.480;13.354;2022-08-21T08:12:53;7.20;;;3.37;;
5026;SDS011;2532;52.480;13.354;2022-08-21T08:15:21;6.73;;;3.43;;
5026;SDS011;2532;52.480;13.354;2022-08-21T08:17:49;8.03;;;3.40;;
5026;SDS011;2532;52.480;13.354;2022-08-21T08:20:17;7.13;;;3.20;;
5026;SDS011;2532;52.480;13.354;2022-08-21T08:22:44;6.77;;;3.57;;
5026;SDS011;2532;52.480;13.354;2022-08-21T08:25:12;7.00;;;3.87;;
5026;SDS011;2532;52.480;13.354;2022-08-21T08:27:42;5.20;;;3.60;;
5026;SDS011;2532;52.480;13.354;2022-08-21T08:30:10;9.87;;;3.50;;
5026;SDS011;2532;52.480;13.354;2022-08-21T08:32:39;10.23;;;4.00;;
5026;SDS011;2532;52.480;13.354;2022-08-21T08:35:07;10.20;;;3.80;;
5026;SDS011;2532;52.480;13.354;2022-08-21T08:37:36;12.77;;;4.03;;
5026;SDS011;2532;52.480;13.354;2022-08-21T08:40:05;16.60;;;4.40;;
5026;SDS011;2532;52.480;13.354;2022-08-21T08:42:33;9.87;;;3.70;;
5026;SDS011;2532;52.480;13.354;2022-08-21T08:45:04;11.20;;;4.03;;
5026;SDS011;2532;52.480;13.354;2022-08-21T08:47:34;5.60;;;3.70;;
5026;SDS011;2532;52.480;13.354;2022-08-21T08:50:05;4.73;;;3.00;;
5026;SDS011;2532;52.480;13.354;2022-08-21T08:52:36;10.03;;;3.97;;
5026;SDS011;2532;52.480;13.354;2022-08-21T08:55:11;8.83;;;3.13;;
5026;SDS011;2532;52.480;13.354;2022-08-21T08:57:42;8.40;;;3.20;;
5026;SDS011;2532;52.480;13.354;2022-08-21T09:00:14;5.63;;;2.70;;
5026;SDS011;2532;52.480;13.354;2022-08-21T09:02:43;5.20;;;3.07;;
5026;SDS011;2532;52.480;13.354;2022-08-21T09:05:15;5.30;;;3.53;;
5026;SDS011;2532;52.480;13.354;2022-08-21T09:07:47;6.27;;;3.37;;
5026;SDS011;2532;52.480;13.354;2022-08-21T09:10:27;5.80;;;2.47;;
5026;SDS011;2532;52.480;13.354;2022-08-21T09:13:03;8.30;;;3.30;;
5026;SDS011;2532;52.480;13.354;2022-08-21T09:15:41;6.00;;;2.50;;
5026;SDS011;2532;52.480;13.354;2022-08-21T09:18:20;11.53;;;3.00;;
5026;SDS011;2532;52.480;13.354;2022-08-21T09:20:59;5.90;;;2.70;;
5026;SDS011;2532;52.480;13.354;2022-08-21T09:23:36;5.27;;;3.00;;
5026;SDS011;2532;52.480;13.354;2022-08-21T09:26:11;8.70;;;2.70;;
5026;SDS011;2532;52.480;13.354;2022-08-21T09:28:40;7.33;;;2.90;;
5026;SDS011;2532;52.480;13.354;2022-08-21T09:31:18;7.13;;;2.80;;
5026;SDS011;2532;52.480;13.354;2022-08-21T09:33:49;7.60;;;2.90;;
5026;SDS011;2532;52.480;13.354;2022-08-21T09:36:22;4.73;;;2.73;;
5026;SDS011;2532;52.480;13.354;2022-08-21T09:38:52;5.27;;;2.70;;
5026;SDS011;2532;52.480;13.354;2022-08-21T09:41:25;8.60;;;2.80;;
5026;SDS011;2532;52.480;13.354;2022-08-21T09:43:56;6.30;;;2.93;;
5026;SDS011;2532;52.480;13.354;2022-08-21T09:46:25;4.00;;;2.60;;
5026;SDS011;2532;52.480;13.354;2022-08-21T09:48:54;6.80;;;2.83;;
5026;SDS011;2532;52.480;13.354;2022-08-21T09:51:23;7.10;;;3.33;;
5026;SDS011;2532;52.480;13.354;2022-08-21T09:53:52;8.57;;;3.00;;
5026;SDS011;2532;52.480;13.354;2022-08-21T09:56:26;6.00;;;2.90;;
5026;SDS011;2532;52.480;13.354;2022-08-21T09:59:16;5.63;;;3.00;;
5026;SDS011;2532;52.480;13.354;2022-08-21T10:01:48;7.07;;;3.17;;
5026;SDS011;2532;52.480;13.354;2022-08-21T10:04:20;8.47;;;3.03;;
5026;SDS011;2532;52.480;13.354;2022-08-21T10:06:48;7.57;;;2.47;;
5026;SDS011;2532;52.480;13.354;2022-08-21T10:09:16;5.77;;;3.10;;
5026;SDS011;2532;52.480;13.354;2022-08-21T10:11:47;5.50;;;3.13;;
5026;SDS011;2532;52.480;13.354;2022-08-21T10:14:22;8.40;;;2.93;;
5026;SDS011;2532;52.480;13.354;2022-08-21T10:17:04;6.10;;;2.93;;
5026;SDS011;2532;52.480;13.354;2022-08-21T10:19:41;8.03;;;3.60;;
5026;SDS011;2532;52.480;13.354;2022-08-21T10:22:19;5.70;;;3.40;;
5026;SDS011;2532;52.480;13.354;2022-08-21T10:25:00;5.13;;;3.00;;
5026;SDS011;2532;52.480;13.354;2022-08-21T10:27:36;5.63;;;2.80;;
5026;SDS011;2532;52.480;13.354;2022-08-21T10:30:10;5.97;;;3.07;;
5026;SDS011;2532;52.480;13.354;2022-08-21T10:33:01;2.80;;;2.47;;
5026;SDS011;2532;52.480;13.354;2022-08-21T10:35:39;5.80;;;2.87;;
5026;SDS011;2532;52.480;13.354;2022-08-21T10:38:20;5.10;;;3.20;;
5026;SDS011;2532;52.480;13.354;2022-08-21T10:41:09;11.30;;;4.83;;
5026;SDS011;2532;52.480;13.354;2022-08-21T10:43:42;4.17;;;2.80;;
5026;SDS011;2532;52.480;13.354;2022-08-21T10:46:21;3.97;;;2.50;;
5026;SDS011;2532;52.480;13.354;2022-08-21T10:49:16;3.23;;;2.63;;
5026;SDS011;2532;52.480;13.354;2022-08-21T10:51:53;3.20;;;2.33;;
5026;SDS011;2532;52.480;13.354;2022-08-21T10:54:29;2.70;;;2.50;;
5026;SDS011;2532;52.480;13.354;2022-08-21T10:57:07;4.10;;;2.40;;
5026;SDS011;2532;52.480;13.354;2022-08-21T10:59:40;2.70;;;2.10;;
5026;SDS011;2532;52.480;13.354;2022-08-21T11:02:13;3.47;;;1.90;;
5026;SDS011;2532;52.480;13.354;2022-08-21T11:04:48;4.07;;;2.00;;
5026;SDS011;2532;52.480;13.354;2022-08-21T11:07:21;2.17;;;1.97;;
5026;SDS011;2532;52.480;13.354;2022-08-21T11:09:53;4.13;;;2.87;;
5026;SDS011;2532;52.480;13.354;2022-08-21T11:12:23;2.93;;;2.40;;
5026;SDS011;2532;52.480;13.354;2022-08-21T11:14:55;7.07;;;4.40;;
5026;SDS011;2532;52.480;13.354;2022-08-21T11:17:28;5.57;;;2.97;;
5026;SDS011;2532;52.480;13.354;2022-08-21T11:20:02;6.90;;;2.30;;
5026;SDS011;2532;52.480;13.354;2022-08-21T11:22:36;7.80;;;1.90;;
5026;SDS011;2532;52.480;13.354;2022-08-21T11:25:11;3.80;;;2.37;;
5026;SDS011;2532;52.480;13.354;2022-08-21T11:27:44;7.73;;;2.63;;
5026;SDS011;2532;52.480;13.354;2022-08-21T11:30:15;3.00;;;2.20;;
5026;SDS011;2532;52.480;13.354;2022-08-21T11:32:52;2.60;;;2.40;;
5026;SDS011;2532;52.480;13.354;2022-08-21T11:35:34;4.53;;;2.73;;
5026;SDS011;2532;52.480;13.354;2022-08-21T11:38:10;3.87;;;2.27;;
5026;SDS011;2532;52.480;13.354;2022-08-21T11:40:50;2.67;;;2.47;;
5026;SDS011;2532;52.480;13.354;2022-08-21T11:43:24;2.60;;;2.40;;
5026;SDS011;2532;52.480;13.354;2022-08-21T11:46:04;3.70;;;2.00;;
5026;SDS011;2532;52.480;13.354;2022-08-21T11:48:45;2.83;;;2.50;;
5026;SDS011;2532;52.480;13.354;2022-08-21T11:51:26;2.10;;;1.90;;
5026;SDS011;2532;52.480;13.354;2022-08-21T11:54:00;5.23;;;3.00;;
5026;SDS011;2532;52.480;13.354;2022-08-21T11:56:36;5.67;;;2.40;;
5026;SDS011;2532;52.480;13.354;2022-08-21T11:59:09;6.17;;;4.00;;
5026;SDS011;2532;52.480;13.354;2022-08-21T12:01:42;7.20;;;3.40;;
5026;SDS011;2532;52.480;13.354;2022-08-21T12:04:16;4.67;;;2.90;;
5026;SDS011;2532;52.480;13.354;2022-08-21T12:06:48;3.20;;;2.73;;
5026;SDS011;2532;52.480;13.354;2022-08-21T12:12:00;6.50;;;4.33;;
5026;SDS011;2532;52.480;13.354;2022-08-21T12:14:37;4.50;;;3.03;;
5026;SDS011;2532;52.480;13.354;2022-08-21T12:17:17;4.70;;;3.40;;
5026;SDS011;2532;52.480;13.354;2022-08-21T12:19:56;3.73;;;2.67;;
5026;SDS011;2532;52.480;13.354;2022-08-21T12:22:34;3.83;;;2.83;;
5026;SDS011;2532;52.480;13.354;2022-08-21T12:25:03;7.30;;;3.13;;
5026;SDS011;2532;52.480;13.354;2022-08-21T12:27:41;10.53;;;3.40;;
5026;SDS011;2532;52.480;13.354;2022-08-21T12:30:19;4.80;;;2.80;;
5026;SDS011;2532;52.480;13.354;2022-08-21T12:32:59;6.30;;;3.23;;
5026;SDS011;2532;52.480;13.354;2022-08-21T12:35:31;4.03;;;2.80;;
5026;SDS011;2532;52.480;13.354;2022-08-21T12:38:04;3.00;;;2.57;;
5026;SDS011;2532;52.480;13.354;2022-08-21T12:40:37;7.10;;;4.73;;
5026;SDS011;2532;52.480;13.354;2022-08-21T12:43:06;3.63;;;2.80;;
5026;SDS011;2532;52.480;13.354;2022-08-21T12:45:42;4.10;;;3.20;;
5026;SDS011;2532;52.480;13.354;2022-08-21T12:48:11;5.13;;;3.10;;
5026;SDS011;2532;52.480;13.354;2022-08-21T12:50:44;3.30;;;2.60;;
5026;SDS011;2532;52.480;13.354;2022-08-21T12:53:18;3.67;;;2.70;;
5026;SDS011;2532;52.480;13.354;2022-08-21T12:55:51;4.23;;;2.63;;
5026;SDS011;2532;52.480;13.354;2022-08-21T12:58:19;8.47;;;3.20;;
5026;SDS011;2532;52.480;13.354;2022-08-21T13:00:48;5.33;;;3.40;;
5026;SDS011;2532;52.480;13.354;2022-08-21T13:03:17;6.50;;;3.13;;
5026;SDS011;2532;52.480;13.354;2022-08-21T13:05:44;5.20;;;3.00;;
5026;SDS011;2532;52.480;13.354;2022-08-21T13:08:12;5.83;;;3.43;;
5026;SDS011;2532;52.480;13.354;2022-08-21T13:10:41;8.60;;;3.47;;
5026;SDS011;2532;52.480;13.354;2022-08-21T13:13:19;5.13;;;3.10;;
5026;SDS011;2532;52.480;13.354;2022-08-21T13:15:47;4.87;;;3.93;;
5026;SDS011;2532;52.480;13.354;2022-08-21T13:18:21;6.40;;;4.10;;
5026;SDS011;2532;52.480;13.354;2022-08-21T13:20:50;5.57;;;2.87;;
5026;SDS011;2532;52.480;13.354;2022-08-21T13:23:19;5.67;;;3.63;;
5026;SDS011;2532;52.480;13.354;2022-08-21T13:25:50;5.67;;;2.83;;
5026;SDS011;2532;52.480;13.354;2022-08-21T13:28:18;4.93;;;3.60;;
5026;SDS011;2532;52.480;13.354;2022-08-21T13:30:46;6.77;;;4.87;;
5026;SDS011;2532;52.480;13.354;2022-08-21T13:33:15;12.93;;;5.00;;
5026;SDS011;2532;52.480;13.354;2022-08-21T13:35:47;6.60;;;3.70;;
5026;SDS011;2532;52.480;13.354;2022-08-21T13:38:16;11.20;;;4.00;;
5026;SDS011;2532;52.480;13.354;2022-08-21T13:40:47;12.00;;;4.30;;
5026;SDS011;2532;52.480;13.354;2022-08-21T13:43:17;6.50;;;4.03;;
5026;SDS011;2532;52.480;13.354;2022-08-21T13:45:47;4.77;;;3.70;;
5026;SDS011;2532;52.480;13.354;2022-08-21T13:48:16;5.73;;;3.10;;
5026;SDS011;2532;52.480;13.354;2022-08-21T13:50:43;5.63;;;3.80;;
5026;SDS011;2532;52.480;13.354;2022-08-21T13:53:19;6.00;;;3.63;;
5026;SDS011;2532;52.480;13.354;2022-08-21T13:55:48;6.00;;;3.23;;
5026;SDS011;2532;52.480;13.354;2022-08-21T13:58:24;6.90;;;4.00;;
5026;SDS011;2532;52.480;13.354;2022-08-21T14:00:52;5.63;;;3.73;;
5026;SDS011;2532;52.480;13.354;2022-08-21T14:03:29;6.80;;;3.93;;
5026;SDS011;2532;52.480;13.354;2022-08-21T14:05:59;8.40;;;4.07;;
5026;SDS011;2532;52.480;13.354;2022-08-21T14:08:28;5.80;;;3.40;;
5026;SDS011;2532;52.480;13.354;2022-08-21T14:10:58;6.50;;;4.00;;
5026;SDS011;2532;52.480;13.354;2022-08-21T14:13:29;5.10;;;3.80;;
5026;SDS011;2532;52.480;13.354;2022-08-21T14:16:03;5.00;;;4.17;;
5026;SDS011;2532;52.480;13.354;2022-08-21T14:18:43;4.27;;;3.30;;
5026;SDS011;2532;52.480;13.354;2022-08-21T14:21:13;6.53;;;3.60;;
5026;SDS011;2532;52.480;13.354;2022-08-21T14:23:58;7.80;;;3.83;;
5026;SDS011;2532;52.480;13.354;2022-08-21T14:26:26;6.30;;;3.87;;
5026;SDS011;2532;52.480;13.354;2022-08-21T14:28:57;7.83;;;3.63;;
5026;SDS011;2532;52.480;13.354;2022-08-21T14:31:28;4.80;;;3.20;;
5026;SDS011;2532;52.480;13.354;2022-08-21T14:33:57;6.87;;;4.30;;
5026;SDS011;2532;52.480;13.354;2022-08-21T14:36:25;7.93;;;4.13;;
5026;SDS011;2532;52.480;13.354;2022-08-21T14:38:52;8.97;;;4.87;;
5026;SDS011;2532;52.480;13.354;2022-08-21T14:41:19;4.00;;;3.07;;
5026;SDS011;2532;52.480;13.354;2022-08-21T14:43:48;6.57;;;3.67;;
5026;SDS011;2532;52.480;13.354;2022-08-21T14:46:20;9.73;;;3.97;;
5026;SDS011;2532;52.480;13.354;2022-08-21T14:48:49;6.30;;;3.43;;
5026;SDS011;2532;52.480;13.354;2022-08-21T14:51:16;8.93;;;3.70;;
5026;SDS011;2532;52.480;13.354;2022-08-21T14:53:43;5.73;;;3.60;;
5026;SDS011;2532;52.480;13.354;2022-08-21T14:56:10;5.33;;;4.03;;
5026;SDS011;2532;52.480;13.354;2022-08-21T14:58:43;6.30;;;4.10;;
5026;SDS011;2532;52.480;13.354;2022-08-21T15:01:13;11.10;;;5.30;;
5026;SDS011;2532;52.480;13.354;2022-08-21T15:03:42;5.50;;;3.60;;
5026;SDS011;2532;52.480;13.354;2022-08-21T15:06:09;9.73;;;4.60;;
5026;SDS011;2532;52.480;13.354;2022-08-21T15:08:36;7.53;;;4.30;;
5026;SDS011;2532;52.480;13.354;2022-08-21T15:11:04;8.07;;;3.80;;
5026;SDS011;2532;52.480;13.354;2022-08-21T15:13:32;10.30;;;5.10;;
5026;SDS011;2532;52.480;13.354;2022-08-21T15:15:59;18.30;;;4.83;;
5026;SDS011;2532;52.480;13.354;2022-08-21T15:18:27;7.90;;;3.57;;